Time;durP1;ratioP1;P1;durP2;ratioP2;P2;SDS_P1;SDS_P2;PMS_P1;PMS_P2;Temp;Humidity;BMP_temperature;BMP_pressure;BME280_temperature;BME280_humidity;BME280_pressure;Samples;Min_cycle;Max_cycle;Signal;HPM_P1;HPM_P2
2022/03/29 00:00:19;;;;;;;24.40;10.60;;;;;;;11.62;28.45;98442.98;106373;1271;97986;-70
2022/03/29 00:03:07;;;;;;;26.70;10.50;;;;;;;11.61;28.48;98434.55;106316;1271;108453;-68
2022/03/29 00:05:36;;;;;;;23.90;9.90;;;;;;;11.59;28.42;98434.95;106258;1271;97866;-69
2022/03/29 00:08:04;;;;;;;22.90;10.40;;;;;;;11.57;28.58;98434.19;106375;1271;96539;-68
2022/03/29 00:10:36;;;;;;;22.10;9.60;;;;;;;11.56;28.69;98432.67;106362;1270;112018;-70
2022/03/29 00:13:04;;;;;;;22.60;9.20;;;;;;;11.55;28.60;98428.38;106348;1270;95906;-70
2022/03/29 00:15:35;;;;;;;22.20;9.60;;;;;;;11.53;28.67;98427.45;106272;1271;106669;-71
2022/03/29 00:18:20;;;;;;;23.80;8.90;;;;;;;11.52;28.71;98425.44;106222;1271;95819;-69
2022/03/29 00:20:54;;;;;;;26.30;9.80;;;;;;;11.49;28.75;98423.70;106300;1270;96077;-69
2022/03/29 00:23:22;;;;;;;22.70;8.80;;;;;;;11.47;28.66;98416.73;106361;1270;111362;-70
2022/03/29 00:25:50;;;;;;;22.20;9.00;;;;;;;11.45;28.68;98410.13;106404;1271;97930;-68
2022/03/29 00:28:18;;;;;;;25.20;8.70;;;;;;;11.45;28.76;98408.24;106309;1271;107643;-68
2022/03/29 00:30:46;;;;;;;21.60;8.40;;;;;;;11.43;28.64;98402.52;106281;1271;97927;-69
2022/03/29 00:33:14;;;;;;;22.70;8.50;;;;;;;11.43;28.84;98400.61;106297;1271;97858;-68
2022/03/29 00:35:42;;;;;;;23.70;8.90;;;;;;;11.41;28.92;98393.97;106337;1271;111665;-68
2022/03/29 00:38:11;;;;;;;21.80;9.20;;;;;;;11.40;28.78;98391.84;106338;1271;97963;-68
2022/03/29 00:40:40;;;;;;;21.40;8.10;;;;;;;11.38;28.93;98387.72;106127;1271;108394;-68
2022/03/29 00:43:10;;;;;;;21.60;9.30;;;;;;;11.37;28.97;98380.53;106252;1271;96420;-69
2022/03/29 00:45:38;;;;;;;21.00;7.80;;;;;;;11.36;29.05;98379.38;106343;1271;97944;-70
2022/03/29 00:48:08;;;;;;;21.20;7.90;;;;;;;11.35;29.08;98371.67;106353;1271;112325;-70
2022/03/29 00:50:40;;;;;;;21.50;8.10;;;;;;;11.34;29.12;98366.42;106350;1271;97875;-70
2022/03/29 00:53:09;;;;;;;20.60;8.70;;;;;;;11.33;29.04;98359.78;106379;1270;107726;-70
2022/03/29 00:55:42;;;;;;;20.80;8.10;;;;;;;11.32;29.15;98355.54;106379;1271;96553;-68
2022/03/29 00:58:11;;;;;;;22.20;8.40;;;;;;;11.31;29.16;98346.06;106398;1270;97947;-70
2022/03/29 01:00:40;;;;;;;18.40;7.70;;;;;;;11.30;29.11;98342.22;106358;1271;112431;-70
2022/03/29 01:03:09;;;;;;;20.30;8.00;;;;;;;11.30;29.25;98340.34;106317;1271;97783;-68
2022/03/29 01:05:37;;;;;;;19.80;7.60;;;;;;;11.28;29.25;98337.75;106364;1271;106921;-67
2022/03/29 01:08:08;;;;;;;22.50;7.80;;;;;;;11.28;29.32;98337.11;106382;1271;97956;-69
2022/03/29 01:10:39;;;;;;;23.30;8.50;;;;;;;11.28;29.35;98334.27;106286;1271;98609;-69
2022/03/29 01:13:08;;;;;;;19.40;8.20;;;;;;;11.27;29.80;98330.94;106224;1271;111972;-69
2022/03/29 01:15:40;;;;;;;20.80;8.20;;;;;;;11.26;29.58;98330.65;106326;1271;97835;-68
2022/03/29 01:18:10;;;;;;;19.50;7.40;;;;;;;11.26;29.39;98330.18;106311;1270;108390;-69
2022/03/29 01:20:41;;;;;;;19.10;7.30;;;;;;;11.26;29.38;98330.91;106313;1270;96240;-70
2022/03/29 01:23:11;;;;;;;21.40;7.60;;;;;;;11.25;29.51;98322.77;106331;1270;97949;-69
2022/03/29 01:25:44;;;;;;;19.20;7.40;;;;;;;11.24;29.58;98321.79;106327;1271;111417;-68
2022/03/29 01:28:17;;;;;;;16.90;7.10;;;;;;;11.24;29.53;98320.92;106394;1271;97916;-70
2022/03/29 01:30:53;;;;;;;17.80;7.10;;;;;;;11.23;29.58;98315.54;106348;1271;108506;-70
2022/03/29 01:33:24;;;;;;;19.70;7.60;;;;;;;11.23;29.64;98311.81;106353;1271;95298;-68
2022/03/29 01:35:54;;;;;;;18.40;7.50;;;;;;;11.23;29.98;98309.34;106367;1271;98633;-69
2022/03/29 01:38:22;;;;;;;18.20;6.90;;;;;;;11.22;29.81;98304.64;106345;1271;112097;-69
2022/03/29 01:40:50;;;;;;;18.80;7.50;;;;;;;11.21;29.96;98298.56;106302;1271;97867;-70
2022/03/29 01:43:18;;;;;;;18.40;6.70;;;;;;;11.19;30.39;98298.67;106262;1271;108326;-70
2022/03/29 01:45:46;;;;;;;17.30;7.40;;;;;;;11.18;29.96;98296.84;106302;1271;96307;-70
2022/03/29 01:48:14;;;;;;;20.30;8.30;;;;;;;11.16;29.92;98294.84;106395;1271;97882;-69
2022/03/29 01:50:43;;;;;;;22.10;7.50;;;;;;;11.15;30.04;98295.97;106342;1270;111391;-70
2022/03/29 01:53:25;;;;;;;19.40;7.30;;;;;;;11.15;29.95;98291.38;106376;1271;97917;-73
2022/03/29 01:56:00;;;;;;;19.80;7.80;;;;;;;11.14;30.13;98287.91;106236;1270;107982;-70
2022/03/29 01:58:30;;;;;;;23.20;7.00;;;;;;;11.13;30.09;98287.63;106248;1270;97853;-71
2022/03/29 02:01:00;;;;;;;16.90;6.50;;;;;;;11.13;30.01;98281.66;106299;1271;97932;-70
2022/03/29 02:03:28;;;;;;;17.80;6.50;;;;;;;11.12;30.05;98283.47;106192;1271;112097;-70
2022/03/29 02:05:59;;;;;;;16.60;7.00;;;;;;;11.11;30.08;98280.70;106363;1271;96310;-67
2022/03/29 02:08:28;;;;;;;18.20;6.80;;;;;;;11.10;30.16;98278.51;106304;1271;108518;-69
2022/03/29 02:10:58;;;;;;;20.40;6.90;;;;;;;11.10;30.24;98275.70;106257;1270;97947;-69
2022/03/29 02:13:29;;;;;;;18.10;7.40;;;;;;;11.09;30.14;98269.57;106370;1271;97853;-70
2022/03/29 02:15:57;;;;;;;20.50;8.20;;;;;;;11.08;30.27;98273.40;106347;1270;111390;-68
2022/03/29 02:18:26;;;;;;;20.00;7.30;;;;;;;11.05;30.30;98269.34;106354;1271;97869;-69
2022/03/29 02:20:54;;;;;;;21.30;8.10;;;;;;;11.04;30.34;98271.79;106371;1270;108397;-69
2022/03/29 02:23:23;;;;;;;22.70;8.60;;;;;;;11.02;30.51;98270.86;106330;1271;95335;-69
2022/03/29 02:25:53;;;;;;;20.60;7.50;;;;;;;11.00;30.49;98265.00;106376;1271;97863;-69
2022/03/29 02:28:21;;;;;;;21.50;7.40;;;;;;;10.98;30.44;98262.33;106294;1271;112052;-69
2022/03/29 02:30:51;;;;;;;19.30;7.20;;;;;;;10.98;30.53;98257.22;106380;1271;98065;-70
2022/03/29 02:33:19;;;;;;;17.90;6.40;;;;;;;10.97;30.55;98257.27;106386;1271;107866;-69
2022/03/29 02:35:47;;;;;;;18.80;7.50;;;;;;;10.97;30.54;98253.54;106407;1271;98053;-67
2022/03/29 02:38:17;;;;;;;20.20;7.20;;;;;;;10.97;30.69;98255.89;106397;1271;97969;-69
2022/03/29 02:40:49;;;;;;;18.40;7.70;;;;;;;10.96;30.63;98256.15;106329;1271;111364;-69
2022/03/29 02:43:17;;;;;;;19.90;7.40;;;;;;;10.95;30.75;98256.42;106376;1270;97933;-69
2022/03/29 02:45:45;;;;;;;19.20;7.70;;;;;;;10.94;30.84;98258.64;106302;1271;107632;-70
2022/03/29 02:48:13;;;;;;;20.00;7.60;;;;;;;10.92;30.84;98257.21;106291;1271;96337;-69
2022/03/29 02:50:41;;;;;;;22.10;8.00;;;;;;;10.92;30.82;98255.95;106349;1271;97978;-70
2022/03/29 02:53:11;;;;;;;16.90;6.90;;;;;;;10.92;30.81;98251.20;106337;1270;113242;-68
2022/03/29 02:55:45;;;;;;;19.30;6.60;;;;;;;10.91;30.90;98251.44;106333;1271;96396;-70
2022/03/29 02:58:13;;;;;;;17.00;6.90;;;;;;;10.89;30.93;98250.51;106398;1271;107972;-71
2022/03/29 03:00:41;;;;;;;16.30;7.10;;;;;;;10.87;31.03;98245.17;106306;1271;98020;-68
2022/03/29 03:03:10;;;;;;;19.10;7.00;;;;;;;10.84;31.03;98242.92;106325;1271;95286;-68
2022/03/29 03:05:40;;;;;;;19.50;7.00;;;;;;;10.82;31.02;98240.63;106357;1271;111959;-69
2022/03/29 03:08:09;;;;;;;20.00;7.10;;;;;;;10.80;31.06;98237.61;106311;1271;98057;-67
2022/03/29 03:10:37;;;;;;;19.60;7.50;;;;;;;10.79;31.02;98238.29;106258;1271;108347;-69
2022/03/29 03:13:11;;;;;;;19.30;6.80;;;;;;;10.76;31.21;98233.35;106335;1270;98587;-69
2022/03/29 03:15:39;;;;;;;21.00;7.30;;;;;;;10.75;31.22;98234.77;106264;1271;96388;-69
2022/03/29 03:18:09;;;;;;;18.90;7.20;;;;;;;10.72;31.26;98234.09;106285;1271;112519;-68
2022/03/29 03:20:38;;;;;;;17.20;7.30;;;;;;;10.70;31.39;98227.55;106302;1271;97943;-70
2022/03/29 03:23:07;;;;;;;18.40;7.00;;;;;;;10.67;31.31;98222.10;106399;1271;108347;-69
2022/03/29 03:25:39;;;;;;;23.80;7.50;;;;;;;10.65;31.41;98225.14;106300;1271;95234;-69
2022/03/29 03:28:07;;;;;;;17.30;7.00;;;;;;;10.63;31.50;98234.15;106278;1271;96347;-69
2022/03/29 03:30:35;;;;;;;17.70;6.60;;;;;;;10.60;31.54;98241.29;106245;1271;112350;-69
2022/03/29 03:33:03;;;;;;;21.50;7.70;;;;;;;10.58;31.54;98239.23;106291;1270;97865;-72
2022/03/29 03:35:34;;;;;;;18.70;7.60;;;;;;;10.56;31.59;98237.00;106252;1271;108464;-69
2022/03/29 03:38:01;;;;;;;17.70;7.10;;;;;;;10.56;31.54;98231.21;104780;1271;2032163;-69
2022/03/29 03:40:29;;;;;;;18.90;7.40;;;;;;;10.56;31.66;98219.88;106297;1271;97958;-68
2022/03/29 03:42:57;;;;;;;17.50;6.60;;;;;;;10.56;31.76;98229.94;106257;1271;111374;-69
2022/03/29 03:45:25;;;;;;;17.30;6.70;;;;;;;10.58;31.99;98237.74;106196;1271;97695;-70
2022/03/29 03:47:56;;;;;;;20.60;7.10;;;;;;;10.57;31.94;98250.80;106236;1271;108354;-69
2022/03/29 03:50:24;;;;;;;17.40;6.70;;;;;;;10.57;31.85;98252.58;106306;1271;95281;-69
2022/03/29 03:52:53;;;;;;;18.70;7.70;;;;;;;10.58;32.03;98248.38;106362;1271;97866;-69
2022/03/29 03:55:23;;;;;;;15.00;6.40;;;;;;;10.59;32.18;98237.86;106232;1271;111202;-70
2022/03/29 03:57:51;;;;;;;17.90;7.40;;;;;;;10.61;32.15;98239.15;106359;1271;97872;-70
2022/03/29 04:00:21;;;;;;;15.90;7.30;;;;;;;10.62;32.08;98247.91;106288;1271;108595;-71
2022/03/29 04:02:53;;;;;;;19.20;7.60;;;;;;;10.61;32.22;98238.59;106175;1271;99245;-70
2022/03/29 04:05:25;;;;;;;19.70;8.00;;;;;;;10.61;32.17;98228.65;106312;1271;97847;-73
2022/03/29 04:07:53;;;;;;;20.80;7.70;;;;;;;10.60;32.30;98231.57;106292;1271;111147;-70
2022/03/29 04:10:21;;;;;;;18.90;7.50;;;;;;;10.59;32.26;98236.23;106310;1271;97976;-69
2022/03/29 04:12:53;;;;;;;18.80;6.90;;;;;;;10.60;32.44;98235.51;106288;1271;107641;-70
2022/03/29 04:15:21;;;;;;;20.20;7.80;;;;;;;10.58;32.52;98237.55;106303;1271;98014;-71
2022/03/29 04:17:49;;;;;;;21.00;7.80;;;;;;;10.59;32.52;98233.27;106303;1271;96279;-72
2022/03/29 04:20:17;;;;;;;19.40;7.20;;;;;;;10.59;32.50;98233.09;106242;1271;110348;-70
2022/03/29 04:22:45;;;;;;;21.10;7.70;;;;;;;10.59;32.42;98229.52;106233;1271;97923;-71
2022/03/29 04:25:15;;;;;;;23.20;7.90;;;;;;;10.59;32.78;98217.52;106229;1271;107652;-71
2022/03/29 04:27:43;;;;;;;20.60;8.10;;;;;;;10.59;32.78;98216.95;106285;1271;97827;-71
2022/03/29 04:30:14;;;;;;;19.10;7.40;;;;;;;10.60;32.79;98219.39;106388;1269;97881;-69
2022/03/29 04:32:42;;;;;;;22.00;8.30;;;;;;;10.59;33.26;98230.75;106353;1271;112375;-70
2022/03/29 04:35:10;;;;;;;18.60;7.10;;;;;;;10.58;33.20;98258.88;106332;1271;96851;-69
2022/03/29 04:37:43;;;;;;;25.20;8.90;;;;;;;10.56;33.27;98275.69;106299;1270;106963;-70
2022/03/29 04:40:12;;;;;;;19.70;8.30;;;;;;;10.55;33.37;98279.51;106292;1271;96264;-70
2022/03/29 04:42:43;;;;;;;20.50;9.00;;;;;;;10.52;34.20;98234.91;106422;1271;95159;-70
2022/03/29 04:45:16;;;;;;;24.40;9.40;;;;;;;10.47;34.87;98204.34;106356;1271;111432;-70
2022/03/29 04:47:47;;;;;;;24.50;10.50;;;;;;;10.45;34.35;98209.27;106417;1271;97888;-71
2022/03/29 04:50:18;;;;;;;23.50;10.70;;;;;;;10.46;33.74;98229.78;106381;1270;107656;-70
2022/03/29 04:52:46;;;;;;;27.00;11.50;;;;;;;10.45;34.00;98230.86;106256;1271;95313;-70
2022/03/29 04:55:18;;;;;;;26.00;11.40;;;;;;;10.45;34.08;98224.13;106388;1271;96433;-70
2022/03/29 04:57:49;;;;;;;29.20;12.60;;;;;;;10.41;34.33;98215.93;106363;1271;111101;-71
2022/03/29 05:00:23;;;;;;;32.80;13.30;;;;;;;10.41;34.40;98219.02;106378;1271;95352;-72
2022/03/29 05:02:51;;;;;;;27.90;13.40;;;;;;;10.41;34.56;98217.35;106229;1271;107606;-72
2022/03/29 05:05:22;;;;;;;28.10;13.00;;;;;;;10.42;34.62;98223.27;106342;1270;95314;-71
2022/03/29 05:07:49;;;;;;;30.90;13.90;;;;;;;10.45;34.71;98232.15;106281;1271;97862;-71
2022/03/29 05:10:17;;;;;;;27.50;13.00;;;;;;;10.46;35.40;98235.60;106337;1270;111449;-71
2022/03/29 05:12:49;;;;;;;29.40;12.40;;;;;;;10.44;35.19;98231.45;106302;1270;98538;-72
2022/03/29 05:15:20;;;;;;;29.70;12.40;;;;;;;10.44;34.88;98235.25;106298;1271;107642;-71
2022/03/29 05:17:51;;;;;;;25.60;11.40;;;;;;;10.41;35.81;98230.53;106269;1270;97957;-71
2022/03/29 05:20:21;;;;;;;25.60;11.70;;;;;;;10.38;35.65;98227.39;106339;1271;97846;-71
2022/03/29 05:22:55;;;;;;;27.70;11.00;;;;;;;10.35;35.43;98224.96;106388;1270;111368;-69
2022/03/29 05:25:26;;;;;;;;;;;;;;;10.34;35.64;98226.84;106310;1270;97947;-71
2022/03/29 05:27:57;;;;;;;26.20;11.20;;;;;;;10.30;35.82;98225.91;106179;1271;106689;-71
2022/03/29 05:30:26;;;;;;;22.50;10.30;;;;;;;10.31;35.70;98225.48;106301;1271;97873;-71
2022/03/29 05:33:03;;;;;;;23.20;9.70;;;;;;;10.31;35.60;98229.20;106350;1271;97857;-71
2022/03/29 05:35:32;;;;;;;23.30;9.60;;;;;;;10.32;35.36;98237.06;106211;1271;111307;-71
2022/03/29 05:38:03;;;;;;;19.00;8.80;;;;;;;10.34;35.63;98240.68;106273;1270;98033;-72
2022/03/29 05:40:31;;;;;;;22.90;10.00;;;;;;;10.33;35.69;98238.94;106231;1271;107685;-73
2022/03/29 05:42:59;;;;;;;21.30;9.20;;;;;;;10.35;35.55;98244.46;106293;1271;95245;-71
2022/03/29 05:45:31;;;;;;;25.20;9.60;;;;;;;10.36;35.69;98244.34;106269;1271;95892;-74
2022/03/29 05:50:45;;;;;;;22.40;9.10;;;;;;;10.36;36.16;98241.01;106263;1271;97876;-71
2022/03/29 05:53:14;;;;;;;23.90;9.50;;;;;;;10.39;36.10;98237.40;106287;1271;107721;-71
2022/03/29 05:55:45;;;;;;;21.20;9.40;;;;;;;10.44;36.21;98235.92;106366;1271;97866;-72
2022/03/29 05:58:16;;;;;;;21.30;9.30;;;;;;;10.48;36.22;98232.23;106324;1270;97847;-71
2022/03/29 06:00:46;;;;;;;19.90;9.10;;;;;;;10.54;36.30;98228.70;106317;1271;111398;-70
2022/03/29 06:03:14;;;;;;;24.00;9.10;;;;;;;10.58;36.25;98219.33;106263;1270;97732;-73
2022/03/29 06:05:44;;;;;;;22.70;10.00;;;;;;;10.61;36.16;98215.35;106285;1271;107835;-71
2022/03/29 06:08:14;;;;;;;22.60;8.90;;;;;;;10.63;36.38;98207.91;106266;1271;97847;-72
2022/03/29 06:10:42;;;;;;;21.00;9.10;;;;;;;10.67;36.46;98204.86;106411;1271;97863;-72
2022/03/29 06:13:11;;;;;;;22.80;9.70;;;;;;;10.74;36.62;98203.83;106299;1270;111443;-70
2022/03/29 06:15:40;;;;;;;20.10;9.00;;;;;;;10.81;36.46;98201.41;106358;1271;97848;-72
2022/03/29 06:18:10;;;;;;;21.80;9.60;;;;;;;10.91;36.65;98192.53;106365;1271;107736;-71
2022/03/29 06:20:41;;;;;;;19.80;9.50;;;;;;;11.01;36.82;98193.41;106287;1271;96218;-71
2022/03/29 06:23:08;;;;;;;22.90;10.10;;;;;;;11.10;36.85;98191.98;106283;1271;97859;-71
2022/03/29 06:25:36;;;;;;;20.50;9.60;;;;;;;11.18;36.93;98193.57;106267;1271;111438;-72
2022/03/29 06:28:04;;;;;;;22.90;10.30;;;;;;;11.27;36.84;98199.52;106260;1271;97876;-72
2022/03/29 06:30:35;;;;;;;21.70;10.60;;;;;;;11.35;37.05;98197.38;106291;1271;107818;-72
2022/03/29 06:33:03;;;;;;;22.90;9.70;;;;;;;11.43;37.17;98200.92;106248;1271;97950;-71
2022/03/29 06:35:34;;;;;;;23.70;9.90;;;;;;;11.51;37.02;98198.76;106314;1271;97972;-70
2022/03/29 06:38:02;;;;;;;23.40;11.20;;;;;;;11.59;37.24;98198.75;106381;1270;112023;-71
2022/03/29 06:40:30;;;;;;;22.70;10.20;;;;;;;11.67;37.09;98209.20;106236;1271;97643;-71
2022/03/29 06:43:00;;;;;;;21.50;10.00;;;;;;;11.75;37.15;98213.23;106261;1271;108452;-71
2022/03/29 06:45:31;;;;;;;22.80;10.80;;;;;;;11.85;37.45;98217.52;106394;1269;97972;-72
2022/03/29 06:47:59;;;;;;;22.60;9.90;;;;;;;11.96;37.40;98218.12;106326;1271;97978;-73
2022/03/29 06:50:29;;;;;;;24.60;10.50;;;;;;;12.08;37.47;98222.11;106349;1271;111367;-72
2022/03/29 06:52:59;;;;;;;23.10;10.60;;;;;;;12.21;37.57;98220.83;106347;1271;97930;-72
2022/03/29 06:55:30;;;;;;;25.20;10.50;;;;;;;12.36;37.53;98216.12;106212;1271;108723;-74
2022/03/29 06:57:59;;;;;;;25.30;11.10;;;;;;;12.48;37.62;98207.52;106209;1271;97872;-72
2022/03/29 07:00:30;;;;;;;21.50;10.20;;;;;;;12.60;37.77;98210.48;106254;1271;97992;-73
2022/03/29 07:02:58;;;;;;;23.40;10.90;;;;;;;12.71;37.79;98208.90;106274;1271;111360;-71
2022/03/29 07:05:28;;;;;;;22.90;11.00;;;;;;;12.77;37.68;98205.27;106122;1271;97972;-72
2022/03/29 07:07:56;;;;;;;25.40;11.60;;;;;;;12.88;37.93;98208.55;106261;1271;107652;-71
2022/03/29 07:13:11;;;;;;;23.80;11.20;;;;;;;12.97;39.45;98215.20;106203;1271;95353;-72
2022/03/29 07:15:39;;;;;;;24.80;11.80;;;;;;;12.94;38.69;98211.16;106235;1271;111189;-70
2022/03/29 07:18:07;;;;;;;23.90;11.30;;;;;;;12.94;39.73;98214.89;106290;1271;97886;-71
2022/03/29 07:20:35;;;;;;;21.80;10.40;;;;;;;12.95;38.83;98217.29;106228;1270;107808;-72
2022/03/29 07:23:03;;;;;;;22.90;10.80;;;;;;;12.99;39.27;98218.53;106219;1271;95178;-72
2022/03/29 07:25:32;;;;;;;24.60;10.50;;;;;;;13.02;38.73;98221.30;106268;1271;97890;-72
2022/03/29 07:28:03;;;;;;;22.30;10.00;;;;;;;13.06;38.93;98222.07;106329;1271;111718;-73
2022/03/29 07:30:34;;;;;;;22.40;10.40;;;;;;;13.01;39.44;98223.83;106375;1271;96600;-71
2022/03/29 07:33:03;;;;;;;24.00;10.60;;;;;;;13.02;39.37;98219.86;106318;1271;107801;-70
2022/03/29 07:35:32;;;;;;;23.00;10.90;;;;;;;13.11;39.11;98218.41;106310;1271;98003;-71
2022/03/29 07:38:00;;;;;;;24.20;11.10;;;;;;;13.28;39.43;98213.45;106250;1271;99024;-70
2022/03/29 07:40:31;;;;;;;23.60;11.60;;;;;;;13.35;39.82;98211.89;106217;1271;111445;-72
2022/03/29 07:42:59;;;;;;;24.60;12.10;;;;;;;13.43;40.36;98208.13;106228;1271;97897;-70
2022/03/29 07:45:30;;;;;;;26.50;12.90;;;;;;;13.50;40.33;98202.45;106243;1271;107739;-72
2022/03/29 07:47:58;;;;;;;30.50;14.40;;;;;;;13.67;40.77;98199.55;106189;1271;98027;-71
2022/03/29 07:50:47;;;;;;;31.20;14.80;;;;;;;13.88;40.21;98198.52;106201;1271;97870;-71
2022/03/29 07:53:15;;;;;;;37.20;19.80;;;;;;;14.04;40.34;98200.09;106315;1271;112205;-70
2022/03/29 07:55:46;;;;;;;41.40;20.80;;;;;;;14.09;40.17;98201.20;106301;1270;97874;-71
2022/03/29 07:58:23;;;;;;;44.00;21.60;;;;;;;13.90;40.47;98199.68;106303;1270;107646;-73
2022/03/29 08:00:51;;;;;;;42.80;21.10;;;;;;;13.77;41.86;98199.98;106414;1271;97854;-70
2022/03/29 08:03:22;;;;;;;44.00;22.40;;;;;;;13.61;41.55;98203.00;106420;1271;95159;-73
2022/03/29 08:05:52;;;;;;;41.90;21.80;;;;;;;13.46;40.93;98203.65;106329;1271;111457;-74
2022/03/29 08:08:20;;;;;;;39.20;19.60;;;;;;;13.35;40.46;98204.23;106368;1271;99012;-75
2022/03/29 08:10:53;;;;;;;40.60;21.20;;;;;;;13.26;41.42;98205.09;106357;1271;108747;-76
2022/03/29 08:13:24;;;;;;;40.10;19.70;;;;;;;13.16;40.85;98199.30;106382;1271;97867;-72
2022/03/29 08:15:56;;;;;;;34.20;18.50;;;;;;;13.08;40.62;98199.17;106368;1270;97891;-73
2022/03/29 08:18:25;;;;;;;39.20;20.20;;;;;;;13.04;41.11;98197.45;106298;1271;110977;-72
2022/03/29 08:20:53;;;;;;;35.00;17.60;;;;;;;12.99;41.75;98202.31;106283;1271;98627;-73
2022/03/29 08:23:25;;;;;;;39.60;20.30;;;;;;;12.95;43.03;98208.60;106259;1271;107717;-71
2022/03/29 08:25:53;;;;;;;37.80;20.00;;;;;;;12.90;41.98;98212.27;106401;1271;95283;-73
2022/03/29 08:28:21;;;;;;;40.00;19.80;;;;;;;12.85;41.63;98220.45;106375;1271;98994;-72
2022/03/29 08:30:49;;;;;;;35.90;17.40;;;;;;;12.78;43.38;98228.89;106401;1271;111496;-75
2022/03/29 08:33:20;;;;;;;39.20;20.40;;;;;;;12.69;46.03;98237.21;106391;1271;97828;-71
2022/03/29 08:35:50;;;;;;;44.70;23.60;;;;;;;12.55;43.40;98236.55;106350;1271;107613;-72
2022/03/29 08:38:18;;;;;;;47.30;24.10;;;;;;;12.47;42.54;98236.58;106402;1271;95368;-72
2022/03/29 08:40:58;;;;;;;42.70;22.50;;;;;;;12.43;42.81;98236.99;106311;1271;95239;-69
2022/03/29 08:43:29;;;;;;;40.10;21.90;;;;;;;12.41;45.99;98239.33;106258;1271;111356;-72
2022/03/29 08:46:00;;;;;;;40.70;22.20;;;;;;;12.28;47.29;98239.94;106306;1271;95176;-73
2022/03/29 08:48:32;;;;;;;39.90;22.00;;;;;;;12.12;47.13;98231.63;106229;1271;108751;-71
2022/03/29 08:51:01;;;;;;;39.70;21.20;;;;;;;11.97;44.88;98236.39;106317;1271;98424;-72
2022/03/29 08:53:49;;;;;;;38.80;22.60;;;;;;;11.85;45.31;98223.45;106316;1271;95254;-72
2022/03/29 08:56:19;;;;;;;38.90;22.90;;;;;;;11.75;43.97;98220.26;106299;1271;111408;-73
2022/03/29 08:58:48;;;;;;;38.50;22.00;;;;;;;11.72;43.77;98218.34;106326;1271;97931;-72
2022/03/29 09:01:21;;;;;;;43.00;23.50;;;;;;;11.73;45.05;98218.80;106161;1271;107836;-71
2022/03/29 09:04:10;;;;;;;40.30;23.20;;;;;;;11.74;44.17;98222.05;106314;1271;97967;-73
2022/03/29 09:07:01;;;;;;;38.90;23.80;;;;;;;11.79;44.75;98222.39;106333;1271;97754;-72
2022/03/29 09:09:33;;;;;;;41.60;25.00;;;;;;;11.83;43.87;98217.73;106318;1270;111512;-73
2022/03/29 09:12:18;;;;;;;42.60;24.10;;;;;;;11.88;43.54;98219.35;106263;1271;97837;-72
2022/03/29 09:14:54;;;;;;;47.50;26.60;;;;;;;11.97;43.76;98217.86;106246;1271;107751;-72
2022/03/29 09:17:35;;;;;;;42.50;25.90;;;;;;;12.03;45.09;98217.35;106297;1271;97871;-72
2022/03/29 09:20:16;;;;;;;43.20;25.10;;;;;;;12.03;45.01;98209.88;106318;1270;95174;-71
2022/03/29 09:22:46;;;;;;;34.30;19.50;;;;;;;12.05;45.05;98213.02;106247;1270;111411;-72
2022/03/29 09:25:33;;;;;;;36.80;23.10;;;;;;;12.06;45.09;98215.48;106281;1271;97817;-72
2022/03/29 09:28:12;;;;;;;35.70;20.50;;;;;;;12.06;46.41;98212.66;106331;1271;107629;-71
2022/03/29 09:30:46;;;;;;;36.40;21.10;;;;;;;12.01;46.45;98208.46;106295;1271;97931;-72
2022/03/29 09:33:30;;;;;;;31.90;19.00;;;;;;;11.97;45.21;98199.76;106381;1270;96366;-71
2022/03/29 09:36:03;;;;;;;35.10;19.30;;;;;;;11.95;45.92;98198.70;106318;1271;109800;-73
2022/03/29 09:38:53;;;;;;;36.40;20.30;;;;;;;11.93;46.13;98196.04;106425;1271;97856;-72
2022/03/29 09:41:28;;;;;;;33.70;20.60;;;;;;;11.91;45.84;98193.01;106364;1270;108156;-72
2022/03/29 09:44:10;;;;;;;37.90;20.50;;;;;;;11.91;45.88;98200.64;106318;1270;97898;-72
2022/03/29 09:46:59;;;;;;;38.00;21.50;;;;;;;11.88;45.79;98200.58;106318;1271;97885;-72
2022/03/29 09:49:50;;;;;;;37.10;21.60;;;;;;;11.83;45.13;98201.88;106334;1271;111525;-69
2022/03/29 09:52:21;;;;;;;35.60;21.60;;;;;;;11.86;45.34;98195.42;106386;1271;97963;-72
2022/03/29 09:55:13;;;;;;;36.60;21.20;;;;;;;11.88;46.40;98188.85;106299;1271;107690;-72
2022/03/29 09:57:57;;;;;;;33.20;19.90;;;;;;;11.90;45.67;98185.80;106343;1271;97980;-73
2022/03/29 10:00:29;;;;;;;;;;;;;;;11.97;46.78;98191.04;106341;1271;97879;-73
2022/03/29 10:03:02;;;;;;;39.60;21.70;;;;;;;12.04;45.68;98187.45;106252;1271;110049;-73
2022/03/29 10:05:34;;;;;;;37.40;21.60;;;;;;;12.18;46.04;98182.73;106242;1271;95178;-73
2022/03/29 10:10:58;;;;;;;37.70;21.80;;;;;;;12.39;46.29;98183.80;106337;1271;97886;-74
2022/03/29 10:13:29;;;;;;;37.60;21.90;;;;;;;12.46;45.96;98185.48;106326;1271;97866;-72
2022/03/29 10:16:00;;;;;;;38.10;22.90;;;;;;;12.55;45.90;98185.91;106385;1270;111583;-72
2022/03/29 10:18:33;;;;;;;;;;;;;;;12.64;47.66;98179.69;106236;1274;97899;-73
2022/03/29 10:21:05;;;;;;;40.60;22.70;;;;;;;12.71;47.87;98175.86;106262;1271;107760;-74
2022/03/29 10:23:35;;;;;;;43.00;24.70;;;;;;;12.83;49.45;98170.65;106254;1271;95268;-73
2022/03/29 10:26:04;;;;;;;40.70;24.40;;;;;;;12.85;47.56;98166.84;106252;1271;97851;-73
2022/03/29 10:28:32;;;;;;;38.00;22.40;;;;;;;12.90;47.00;98165.98;106236;1271;110825;-73
2022/03/29 10:31:23;;;;;;;39.00;24.00;;;;;;;13.02;47.33;98165.38;106305;1271;98267;-72
2022/03/29 10:34:18;;;;;;;40.90;23.50;;;;;;;13.13;48.11;98161.48;106318;1271;107951;-73
2022/03/29 10:37:09;;;;;;;39.00;22.90;;;;;;;13.21;47.52;98159.11;106363;1271;97961;-72
2022/03/29 10:39:45;;;;;;;39.90;22.90;;;;;;;13.33;47.75;98156.13;106271;1271;97953;-73
2022/03/29 10:42:28;;;;;;;41.90;23.90;;;;;;;13.41;47.20;98151.43;106227;1270;111431;-73
2022/03/29 10:45:17;;;;;;;40.60;23.30;;;;;;;13.49;47.47;98148.75;106286;1271;97805;-73
2022/03/29 10:47:56;;;;;;;38.30;23.20;;;;;;;13.56;47.46;98143.27;106261;1271;108268;-73
2022/03/29 10:50:47;;;;;;;35.70;20.20;;;;;;;13.60;47.96;98143.71;106238;1271;97840;-72
2022/03/29 10:53:28;;;;;;;37.40;21.60;;;;;;;13.60;47.74;98141.21;106288;1271;97941;-73
2022/03/29 10:56:16;;;;;;;39.80;23.20;;;;;;;13.66;47.71;98133.33;106299;1271;111437;-73
2022/03/29 10:59:00;;;;;;;40.10;22.70;;;;;;;13.74;47.33;98134.84;106334;1271;97980;-73
2022/03/29 11:01:32;;;;;;;39.10;22.80;;;;;;;13.84;47.27;98128.84;106334;1271;107704;-73
2022/03/29 11:04:14;;;;;;;38.80;23.20;;;;;;;13.96;47.29;98123.07;106221;1271;97781;-73
2022/03/29 11:07:07;;;;;;;35.60;21.50;;;;;;;14.08;47.92;98118.80;106227;1271;96054;-74
2022/03/29 11:09:36;;;;;;;36.40;21.40;;;;;;;14.12;47.45;98114.09;106111;1271;110208;-74
2022/03/29 11:12:05;;;;;;;37.10;21.50;;;;;;;14.19;47.21;98110.05;106317;1271;97874;-72
2022/03/29 11:14:37;;;;;;;34.50;19.50;;;;;;;14.26;47.52;98108.21;106195;1271;106636;-72
2022/03/29 11:17:11;;;;;;;37.90;21.40;;;;;;;14.25;48.31;98103.52;106198;1271;97883;-75
2022/03/29 11:19:53;;;;;;;40.10;23.00;;;;;;;14.24;47.68;98102.56;106165;1271;97959;-76
2022/03/29 11:22:32;;;;;;;38.00;20.40;;;;;;;14.33;47.35;98098.05;106163;1271;111504;-72
2022/03/29 11:25:06;;;;;;;38.20;20.20;;;;;;;14.40;47.28;98092.67;106218;1271;97879;-73
2022/03/29 11:27:36;;;;;;;35.00;19.10;;;;;;;14.50;47.35;98090.23;106240;1270;107779;-72
2022/03/29 11:30:10;;;;;;;35.90;20.80;;;;;;;14.56;47.35;98084.80;106235;1271;95873;-72
2022/03/29 11:32:45;;;;;;;;;;;;;;;14.60;47.25;98087.58;106248;1271;97897;-72
2022/03/29 11:35:15;;;;;;;32.60;19.20;;;;;;;14.62;47.98;98087.39;106206;1271;111946;-72
2022/03/29 11:37:49;;;;;;;33.80;18.90;;;;;;;14.68;47.86;98085.11;106224;1271;97959;-71
2022/03/29 11:40:19;;;;;;;35.00;19.40;;;;;;;14.69;48.22;98083.44;106174;1271;109337;-73